Time;durP1;ratioP1;P1;durP2;ratioP2;P2;SDS_P1;SDS_P2;PMS_P1;PMS_P2;Temp;Humidity;BMP_temperature;BMP_pressure;BME280_temperature;BME280_humidity;BME280_pressure;Samples;Min_cycle;Max_cycle;Signal;HPM_P1;HPM_P2
2023/07/03 00:00:43;;;;;;;12.77;3.95;;;16.30;1.00;;;;;;5047198;28;21162;-68
2023/07/03 00:03:13;;;;;;;13.37;3.10;;;16.30;1.00;;;;;;5067658;28;20413;-69
2023/07/03 00:05:46;;;;;;;12.95;3.70;;;16.20;1.00;;;;;;5048437;28;20405;-69
2023/07/03 00:08:14;;;;;;;9.48;3.65;;;16.20;1.00;;;;;;5067757;28;20406;-69
2023/07/03 00:10:39;;;;;;;11.70;3.70;;;16.20;1.00;;;;;;5060552;28;20410;-68
2023/07/03 00:13:05;;;;;;;12.10;3.73;;;16.20;1.00;;;;;;5047701;28;20977;-69
2023/07/03 00:15:31;;;;;;;11.23;3.65;;;16.20;1.00;;;;;;5046251;28;20897;-69
2023/07/03 00:17:57;;;;;;;12.00;3.78;;;16.20;1.00;;;;;;5049644;28;20516;-69
2023/07/03 00:20:22;;;;;;;12.80;3.90;;;16.10;1.00;;;;;;5049770;28;21253;-68
2023/07/03 00:22:48;;;;;;;12.98;3.38;;;16.10;6.20;;;;;;5049236;28;20421;-69
2023/07/03 00:25:14;;;;;;;15.63;3.80;;;16.20;1.00;;;;;;5036092;28;20965;-69
2023/07/03 00:27:40;;;;;;;10.47;3.67;;;16.20;13.40;;;;;;5049922;28;20466;-69
2023/07/03 00:30:06;;;;;;;13.07;3.75;;;16.20;48.00;;;;;;5049767;28;20900;-69
2023/07/03 00:32:32;;;;;;;12.23;3.60;;;16.10;62.10;;;;;;5049208;28;20406;-69
2023/07/03 00:34:58;;;;;;;13.93;3.67;;;16.10;44.10;;;;;;5044584;28;20494;-69
2023/07/03 00:37:24;;;;;;;13.63;3.75;;;16.10;83.30;;;;;;5040779;28;20548;-69
2023/07/03 00:39:49;;;;;;;12.85;3.45;;;16.10;94.10;;;;;;5044829;28;20507;-69
2023/07/03 00:42:15;;;;;;;10.40;3.43;;;16.10;99.90;;;;;;5048207;28;20397;-69
2023/07/03 00:44:41;;;;;;;11.63;3.42;;;16.10;78.40;;;;;;5045046;28;20423;-69
2023/07/03 00:47:10;;;;;;;10.43;3.10;;;16.10;76.90;;;;;;5049210;28;20433;-69
2023/07/03 00:49:36;;;;;;;13.48;3.58;;;16.10;74.90;;;;;;5044127;28;20482;-69
2023/07/03 00:52:02;;;;;;;10.27;3.50;;;16.10;47.60;;;;;;5042125;28;20410;-69
2023/07/03 00:54:29;;;;;;;10.70;3.33;;;16.10;78.50;;;;;;5042135;28;20832;-69
2023/07/03 00:56:55;;;;;;;14.30;3.30;;;16.10;22.90;;;;;;5030526;28;20427;-69
2023/07/03 00:59:22;;;;;;;10.30;3.43;;;16.10;11.20;;;;;;5042418;28;20455;-69
2023/07/03 01:02:15;;;;;;;11.27;3.30;;;16.10;21.90;;;;;;5048976;28;20481;-69
2023/07/03 01:04:46;;;;;;;11.80;3.28;;;16.10;12.00;;;;;;5045641;28;21631;-69
2023/07/03 01:07:15;;;;;;;10.88;3.40;;;16.10;4.40;;;;;;5044223;28;20474;-69
2023/07/03 01:09:45;;;;;;;13.38;3.47;;;16.10;1.00;;;;;;5044182;28;20419;-69
2023/07/03 01:12:12;;;;;;;11.77;3.90;;;16.10;6.00;;;;;;5053257;28;20777;-69
2023/07/03 01:14:40;;;;;;;9.77;3.60;;;16.10;9.90;;;;;;5050664;28;20408;-69
2023/07/03 01:17:11;;;;;;;12.10;3.40;;;16.10;20.60;;;;;;5050355;28;20474;-69
2023/07/03 01:19:40;;;;;;;10.65;3.38;;;16.10;24.10;;;;;;5068565;28;20395;-69
2023/07/03 01:22:25;;;;;;;10.77;3.40;;;16.10;1.00;;;;;;5048242;28;20437;-69
2023/07/03 01:24:56;;;;;;;15.65;3.47;;;16.10;9.40;;;;;;5055798;28;20792;-69
2023/07/03 01:27:30;;;;;;;11.85;3.38;;;16.10;6.10;;;;;;5046988;28;20421;-69
2023/07/03 01:29:57;;;;;;;10.45;3.17;;;16.00;16.40;;;;;;5061436;28;20457;-69
2023/07/03 01:32:26;;;;;;;13.77;3.20;;;16.00;1.00;;;;;;5067829;28;20523;-69
2023/07/03 01:34:53;;;;;;;11.55;3.53;;;16.00;20.10;;;;;;5047245;28;21996;-69
2023/07/03 01:37:23;;;;;;;12.70;3.83;;;16.00;24.80;;;;;;5067458;28;20528;-69
2023/07/03 01:39:51;;;;;;;11.77;3.50;;;16.00;16.90;;;;;;5067922;28;20923;-69
2023/07/03 01:42:18;;;;;;;10.77;3.05;;;16.00;15.80;;;;;;5043880;28;20421;-69
2023/07/03 01:44:43;;;;;;;12.18;3.55;;;16.00;31.40;;;;;;5043863;28;20498;-69
2023/07/03 01:47:11;;;;;;;11.47;3.23;;;16.00;48.80;;;;;;5044372;28;21022;-69
2023/07/03 01:49:38;;;;;;;13.45;3.40;;;16.00;91.70;;;;;;5043587;28;20403;-69
2023/07/03 01:52:18;;;;;;;13.23;3.23;;;16.00;99.90;;;;;;5045656;28;20405;-69
2023/07/03 01:55:04;;;;;;;12.55;3.35;;;16.00;99.90;;;;;;5061995;28;20490;-69
2023/07/03 01:57:40;;;;;;;10.13;2.90;;;16.00;99.90;;;;;;5040295;28;20458;-69
2023/07/03 02:00:09;;;;;;;14.38;3.47;;;16.00;99.90;;;;;;5067467;28;20436;-69
2023/07/03 02:02:37;;;;;;;12.90;3.30;;;16.00;99.90;;;;;;5067870;28;20407;-69
2023/07/03 02:05:07;;;;;;;15.88;3.50;;;16.00;99.90;;;;;;5067907;28;20424;-69
2023/07/03 02:07:35;;;;;;;9.90;2.83;;;16.00;99.90;;;;;;5067839;28;21223;-69
2023/07/03 02:10:02;;;;;;;11.68;3.38;;;16.00;99.90;;;;;;5044841;28;20405;-68
2023/07/03 02:12:29;;;;;;;11.20;3.05;;;16.00;99.90;;;;;;5059373;28;20439;-68
2023/07/03 02:14:58;;;;;;;12.57;3.47;;;15.90;99.90;;;;;;5040664;28;20420;-69
2023/07/03 02:17:24;;;;;;;12.90;3.20;;;15.90;99.90;;;;;;5064157;28;20566;-69
2023/07/03 02:19:50;;;;;;;11.23;2.90;;;15.90;99.90;;;;;;5046221;28;20500;-69
2023/07/03 02:22:16;;;;;;;13.38;3.10;;;15.80;99.90;;;;;;5046391;28;20412;-69
2023/07/03 02:24:41;;;;;;;11.40;2.93;;;15.80;99.90;;;;;;5021948;28;20965;-69
2023/07/03 02:27:07;;;;;;;10.93;2.65;;;15.70;99.90;;;;;;5041585;28;20979;-69
2023/07/03 02:29:33;;;;;;;9.60;2.37;;;15.70;99.90;;;;;;5033531;28;20407;-69
2023/07/03 02:31:58;;;;;;;12.10;2.97;;;15.70;99.90;;;;;;5065476;28;20400;-69
2023/07/03 02:34:24;;;;;;;10.97;2.90;;;15.60;99.90;;;;;;5046495;28;20409;-69
2023/07/03 02:36:50;;;;;;;13.30;2.75;;;15.50;99.90;;;;;;5045892;28;20500;-69
2023/07/03 02:39:15;;;;;;;11.33;2.63;;;15.50;99.90;;;;;;5045335;28;20426;-68
2023/07/03 02:41:42;;;;;;;11.07;2.85;;;15.40;99.90;;;;;;5033597;28;20408;-69
2023/07/03 02:44:07;;;;;;;8.47;2.37;;;15.40;99.90;;;;;;5038665;28;20410;-69
2023/07/03 02:46:33;;;;;;;10.80;2.80;;;15.40;99.90;;;;;;5066273;28;20904;-69
2023/07/03 02:48:58;;;;;;;9.70;2.30;;;15.30;99.90;;;;;;5046159;28;20970;-69
2023/07/03 02:51:24;;;;;;;11.47;2.87;;;15.30;99.90;;;;;;5062917;28;20905;-69
2023/07/03 02:53:50;;;;;;;11.13;2.58;;;15.20;99.90;;;;;;5038699;28;20608;-69
2023/07/03 02:56:15;;;;;;;8.57;2.63;;;15.20;99.90;;;;;;5048209;28;20413;-69
2023/07/03 02:58:41;;;;;;;10.20;2.90;;;15.20;99.90;;;;;;5044326;28;20417;-69
2023/07/03 03:01:06;;;;;;;8.67;2.60;;;15.10;99.90;;;;;;5044765;28;20411;-69
2023/07/03 03:03:32;;;;;;;9.30;2.90;;;15.10;1.00;;;;;;5046029;28;20401;-69
2023/07/03 03:05:58;;;;;;;9.87;2.73;;;15.00;1.00;;;;;;5062567;28;20828;-69
2023/07/03 03:08:23;;;;;;;7.20;2.47;;;15.00;1.00;;;;;;5069735;28;20499;-69
2023/07/03 03:10:55;;;;;;;9.97;2.43;;;15.00;1.00;;;;;;5070328;28;20419;-69
2023/07/03 03:13:20;;;;;;;13.27;2.50;;;14.90;15.60;;;;;;5070593;28;20415;-69
2023/07/03 03:15:46;;;;;;;11.13;2.60;;;14.90;91.90;;;;;;5050840;28;20401;-69
2023/07/03 03:18:12;;;;;;;9.32;2.30;;;14.80;16.40;;;;;;5049261;28;20440;-69
2023/07/03 03:20:38;;;;;;;9.60;2.40;;;14.80;38.10;;;;;;5047618;28;20461;-69
2023/07/03 03:23:04;;;;;;;11.02;1.95;;;14.80;10.50;;;;;;5049097;28;20405;-69
2023/07/03 03:25:30;;;;;;;9.63;2.00;;;14.70;1.00;;;;;;5026014;28;20492;-69
2023/07/03 03:27:55;;;;;;;12.00;1.95;;;14.70;1.00;;;;;;5049608;28;20421;-69
2023/07/03 03:30:22;;;;;;;9.53;1.87;;;14.80;1.00;;;;;;5046822;28;20408;-69
2023/07/03 03:32:47;;;;;;;9.73;1.80;;;14.70;1.00;;;;;;5047478;28;20412;-69
2023/07/03 03:35:13;;;;;;;11.90;2.22;;;14.80;99.90;;;;;;5043501;28;20408;-69
2023/07/03 03:37:38;;;;;;;10.40;1.97;;;14.80;99.90;;;;;;5050190;28;20970;-69
2023/07/03 03:40:07;;;;;;;9.13;1.83;;;14.70;99.90;;;;;;5049555;28;20413;-69
2023/07/03 03:42:33;;;;;;;8.57;1.80;;;14.80;99.90;;;;;;5033394;28;20814;-69
2023/07/03 03:44:59;;;;;;;8.13;1.77;;;14.80;99.90;;;;;;5048542;28;20405;-69
2023/07/03 03:47:25;;;;;;;11.50;1.80;;;14.80;99.90;;;;;;5068281;28;20426;-69
2023/07/03 03:49:52;;;;;;;14.25;2.20;;;14.80;99.90;;;;;;5052518;28;20889;-69
2023/07/03 03:52:17;;;;;;;7.50;1.85;;;14.80;99.90;;;;;;5033255;28;20496;-69
2023/07/03 03:54:43;;;;;;;12.67;1.70;;;14.80;99.90;;;;;;5069670;28;20487;-69
2023/07/03 03:57:09;;;;;;;7.45;1.80;;;14.80;73.00;;;;;;5048290;28;20452;-69
2023/07/03 03:59:34;;;;;;;9.03;2.20;;;14.80;29.20;;;;;;5068380;28;20395;-69
2023/07/03 04:02:00;;;;;;;10.03;1.70;;;14.90;43.50;;;;;;5070487;28;20399;-69
2023/07/03 04:04:26;;;;;;;8.80;1.77;;;14.80;20.50;;;;;;5064250;28;20621;-69
2023/07/03 04:06:52;;;;;;;9.45;1.90;;;14.80;23.70;;;;;;5066843;28;20400;-69
2023/07/03 04:09:18;;;;;;;10.32;1.70;;;14.80;1.80;;;;;;5062474;28;20431;-69
2023/07/03 04:11:43;;;;;;;11.13;1.83;;;14.80;1.00;;;;;;5044820;28;20404;-69
2023/07/03 04:14:09;;;;;;;8.82;1.60;;;14.80;1.00;;;;;;5047895;28;20783;-69
2023/07/03 04:16:35;;;;;;;9.17;1.50;;;14.80;7.50;;;;;;5038997;28;20495;-69
2023/07/03 04:19:01;;;;;;;9.82;1.65;;;14.90;1.80;;;;;;5033383;28;20414;-69
2023/07/03 04:21:27;;;;;;;10.38;1.77;;;14.90;1.00;;;;;;5048590;28;20398;-69
2023/07/03 04:23:52;;;;;;;8.55;1.95;;;14.90;1.20;;;;;;5049471;28;20451;-69
2023/07/03 04:26:18;;;;;;;8.03;1.70;;;15.00;1.00;;;;;;5049374;28;20402;-68
2023/07/03 04:28:44;;;;;;;10.35;1.63;;;15.00;1.00;;;;;;5049297;28;20463;-69
2023/07/03 04:31:09;;;;;;;6.63;1.60;;;15.00;1.00;;;;;;5049146;28;20764;-69
2023/07/03 04:33:35;;;;;;;11.88;1.75;;;15.00;1.00;;;;;;5044492;28;20478;-69
2023/07/03 04:36:01;;;;;;;9.23;1.77;;;15.00;1.00;;;;;;5044308;28;20932;-69
2023/07/03 04:38:26;;;;;;;11.35;2.10;;;14.90;1.00;;;;;;5041318;28;20429;-69
2023/07/03 04:40:53;;;;;;;11.33;1.83;;;15.00;38.20;;;;;;5044485;28;20465;-69
2023/07/03 04:43:20;;;;;;;9.43;1.80;;;15.10;79.00;;;;;;5030381;28;20407;-69
2023/07/03 04:45:51;;;;;;;10.15;2.25;;;15.20;95.30;;;;;;5042597;28;20425;-69
2023/07/03 04:48:17;;;;;;;7.90;1.50;;;15.30;64.70;;;;;;5041156;28;20444;-69
2023/07/03 04:50:46;;;;;;;9.60;1.98;;;15.40;80.80;;;;;;5044149;28;20419;-69
2023/07/03 04:53:12;;;;;;;9.77;1.80;;;15.50;59.80;;;;;;5041864;28;20401;-69
2023/07/03 04:55:38;;;;;;;11.18;2.28;;;15.60;32.70;;;;;;5044145;28;20423;-69
2023/07/03 04:58:05;;;;;;;10.75;1.75;;;15.70;1.00;;;;;;5040360;28;20520;-69
2023/07/03 05:00:31;;;;;;;9.82;1.80;;;15.70;1.00;;;;;;5048532;28;20404;-69
2023/07/03 05:02:59;;;;;;;9.57;2.03;;;15.70;1.00;;;;;;5040036;28;20735;-69
2023/07/03 05:05:25;;;;;;;9.43;1.90;;;15.70;1.00;;;;;;5048582;28;20405;-69
2023/07/03 05:07:51;;;;;;;8.70;1.70;;;15.70;2.40;;;;;;5048980;28;20405;-69
2023/07/03 05:10:18;;;;;;;10.18;1.88;;;15.80;46.80;;;;;;5043110;28;20947;-69
2023/07/03 05:12:44;;;;;;;9.48;1.73;;;15.80;72.80;;;;;;5052746;28;20401;-69
2023/07/03 05:15:12;;;;;;;7.03;1.40;;;15.80;84.80;;;;;;5059366;28;20755;-67
2023/07/03 05:17:39;;;;;;;7.85;1.60;;;15.80;57.20;;;;;;5068172;28;20424;-67
2023/07/03 05:20:10;;;;;;;9.07;1.70;;;15.80;49.50;;;;;;5034255;28;20404;-68
2023/07/03 05:22:38;;;;;;;11.38;1.73;;;15.90;90.90;;;;;;5050380;28;20404;-68
2023/07/03 05:25:05;;;;;;;11.90;1.67;;;15.90;95.00;;;;;;5044663;28;20420;-68
2023/07/03 05:27:31;;;;;;;7.97;1.77;;;15.90;99.50;;;;;;5038316;28;20417;-68
2023/07/03 05:29:57;;;;;;;9.57;2.08;;;15.90;99.90;;;;;;5057281;28;20413;-68
2023/07/03 05:32:24;;;;;;;10.23;1.65;;;16.00;99.90;;;;;;5053032;28;20393;-68
2023/07/03 05:34:49;;;;;;;9.57;2.30;;;16.00;99.90;;;;;;5066845;28;20408;-68
2023/07/03 05:37:15;;;;;;;12.10;1.57;;;16.00;99.90;;;;;;5040250;28;20433;-68
2023/07/03 05:39:41;;;;;;;10.80;1.75;;;16.10;99.90;;;;;;5036184;28;20413;-68
2023/07/03 05:42:07;;;;;;;10.02;1.55;;;16.10;99.90;;;;;;5045750;28;20747;-69
2023/07/03 05:44:33;;;;;;;9.65;1.90;;;16.10;99.90;;;;;;5046775;28;20409;-68
2023/07/03 05:46:59;;;;;;;9.53;1.80;;;16.10;99.90;;;;;;5059778;28;20421;-69
2023/07/03 05:49:24;;;;;;;7.78;1.50;;;16.20;99.90;;;;;;5046958;28;20405;-68
2023/07/03 05:51:50;;;;;;;8.37;1.77;;;16.30;99.90;;;;;;5045259;28;20921;-68
2023/07/03 05:54:16;;;;;;;9.65;1.60;;;16.30;81.80;;;;;;5046862;28;20506;-69
2023/07/03 05:56:43;;;;;;;8.05;1.63;;;16.30;59.10;;;;;;5044665;28;20485;-69
2023/07/03 05:59:09;;;;;;;10.07;1.70;;;16.40;53.50;;;;;;5046714;28;20412;-69
2023/07/03 06:01:34;;;;;;;9.85;1.98;;;16.60;35.70;;;;;;5044652;28;20399;-69
2023/07/03 06:04:00;;;;;;;11.45;1.75;;;16.70;1.00;;;;;;5059368;28;20399;-68
2023/07/03 06:06:26;;;;;;;12.70;1.60;;;16.70;1.00;;;;;;5024031;28;20476;-68
2023/07/03 06:08:51;;;;;;;10.07;2.03;;;16.70;99.90;;;;;;5067213;28;20399;-68
2023/07/03 06:11:17;;;;;;;11.10;1.80;;;16.70;99.90;;;;;;5040891;28;20401;-69
2023/07/03 06:13:42;;;;;;;9.63;1.50;;;16.80;99.90;;;;;;5030465;28;20409;-68
2023/07/03 06:16:08;;;;;;;8.75;1.60;;;16.80;99.90;;;;;;5066648;28;20411;-69
2023/07/03 06:18:33;;;;;;;9.93;1.93;;;16.80;99.90;;;;;;5045261;28;20484;-68
2023/07/03 06:20:59;;;;;;;8.10;1.40;;;16.70;99.90;;;;;;5066865;28;20818;-68
2023/07/03 06:23:25;;;;;;;9.20;1.67;;;16.60;99.90;;;;;;5040361;28;20405;-68
2023/07/03 06:25:50;;;;;;;8.52;1.42;;;16.60;99.90;;;;;;5067156;28;20462;-68
2023/07/03 06:28:16;;;;;;;9.60;1.83;;;16.60;99.90;;;;;;5045826;28;20409;-68
2023/07/03 06:30:51;;;;;;;10.43;1.98;;;16.60;99.90;;;;;;5048370;28;20769;-69
2023/07/03 06:33:16;;;;;;;8.65;1.83;;;16.70;99.90;;;;;;5045897;28;20447;-69
2023/07/03 06:35:42;;;;;;;10.10;1.75;;;16.70;99.90;;;;;;5039805;28;20496;-69
2023/07/03 06:38:08;;;;;;;6.80;1.37;;;16.90;99.90;;;;;;5063852;28;20428;-69
2023/07/03 06:40:33;;;;;;;11.30;1.73;;;17.00;99.90;;;;;;5070067;28;20447;-68
2023/07/03 06:42:59;;;;;;;8.97;1.23;;;17.10;99.90;;;;;;5062737;28;20476;-68
2023/07/03 06:45:25;;;;;;;12.00;1.75;;;17.10;99.90;;;;;;5049281;28;20508;-69
2023/07/03 06:47:51;;;;;;;9.20;1.20;;;17.10;99.90;;;;;;5050586;28;20408;-69
2023/07/03 06:50:17;;;;;;;11.32;2.03;;;17.20;99.90;;;;;;5049229;28;20527;-69
2023/07/03 06:52:45;;;;;;;6.65;0.95;;;17.30;99.90;;;;;;5062149;28;20915;-68
2023/07/03 06:55:10;;;;;;;10.38;1.20;;;17.40;99.90;;;;;;5033964;28;20816;-68
2023/07/03 06:57:36;;;;;;;7.07;1.00;;;17.50;82.30;;;;;;5033910;28;20555;-69
2023/07/03 07:00:05;;;;;;;7.70;1.17;;;17.70;1.00;;;;;;5049046;28;20404;-68
2023/07/03 07:02:30;;;;;;;7.22;1.23;;;17.80;1.00;;;;;;5049348;28;20420;-69
2023/07/03 07:04:56;;;;;;;8.07;1.10;;;17.80;99.90;;;;;;5067455;28;20780;-69
2023/07/03 07:07:22;;;;;;;6.70;1.20;;;17.90;99.90;;;;;;5050028;28;20409;-69
2023/07/03 07:09:47;;;;;;;7.18;1.30;;;17.90;99.90;;;;;;5048258;28;20461;-69
2023/07/03 07:12:13;;;;;;;7.03;1.10;;;17.70;99.90;;;;;;5049206;28;20413;-69
2023/07/03 07:14:38;;;;;;;12.40;2.20;;;17.50;99.90;;;;;;5053300;28;20471;-69
2023/07/03 07:17:04;;;;;;;9.90;1.95;;;17.20;1.00;;;;;;5049125;28;20437;-69
2023/07/03 07:19:30;;;;;;;13.90;2.03;;;16.80;99.90;;;;;;5068329;28;20489;-69
2023/07/03 07:21:55;;;;;;;9.98;1.65;;;16.40;1.00;;;;;;5062742;28;20409;-69
2023/07/03 07:24:24;;;;;;;10.00;1.40;;;16.10;99.90;;;;;;5066643;28;20423;-69
2023/07/03 07:26:54;;;;;;;6.73;1.20;;;15.90;99.90;;;;;;5049477;28;20980;-69
2023/07/03 07:29:20;;;;;;;7.38;1.45;;;15.90;99.90;;;;;;5066046;28;20415;-69
2023/07/03 07:31:46;;;;;;;7.03;1.45;;;15.70;1.00;;;;;;5060616;28;20460;-69
2023/07/03 07:34:12;;;;;;;9.03;2.10;;;15.70;99.90;;;;;;5058361;28;20412;-69
2023/07/03 07:36:39;;;;;;;8.23;1.60;;;15.70;99.90;;;;;;5051746;28;20458;-69
2023/07/03 07:39:04;;;;;;;7.47;1.88;;;15.80;1.00;;;;;;5060718;28;20440;-69
2023/07/03 07:41:31;;;;;;;9.37;2.00;;;15.80;7.80;;;;;;5066217;28;20436;-69
2023/07/03 07:43:58;;;;;;;10.32;2.00;;;15.90;78.20;;;;;;5040417;28;20612;-69
2023/07/03 07:46:28;;;;;;;8.57;1.40;;;16.10;91.00;;;;;;5051492;28;20761;-69
2023/07/03 07:48:55;;;;;;;9.02;2.00;;;16.20;99.90;;;;;;5048227;28;20419;-69
2023/07/03 07:51:21;;;;;;;6.20;1.50;;;16.30;94.30;;;;;;5042561;28;20412;-69
2023/07/03 07:53:46;;;;;;;8.55;1.60;;;16.50;99.90;;;;;;5048814;28;20424;-69
2023/07/03 07:56:13;;;;;;;6.90;1.27;;;16.70;99.90;;;;;;5032860;28;20784;-69
2023/07/03 07:58:39;;;;;;;7.53;1.38;;;16.70;1.00;;;;;;5045515;28;20437;-69
2023/07/03 08:01:06;;;;;;;7.50;1.40;;;16.70;1.00;;;;;;5038832;28;20412;-69
2023/07/03 08:03:31;;;;;;;8.52;1.50;;;16.70;99.90;;;;;;5067311;28;20911;-69
2023/07/03 08:06:03;;;;;;;7.88;1.17;;;16.70;1.00;;;;;;5070428;28;20400;-69
2023/07/03 08:08:30;;;;;;;5.43;1.20;;;16.80;1.00;;;;;;5051576;28;20408;-69
2023/07/03 08:10:59;;;;;;;7.47;1.23;;;16.90;99.90;;;;;;5069974;28;20415;-69
2023/07/03 08:13:25;;;;;;;6.20;0.90;;;17.00;99.90;;;;;;5065590;28;20420;-69
2023/07/03 08:15:51;;;;;;;7.50;1.33;;;17.20;1.00;;;;;;5062269;28;20400;-69
2023/07/03 08:18:18;;;;;;;6.38;1.08;;;17.30;99.90;;;;;;5051529;28;20789;-69
2023/07/03 08:20:44;;;;;;;4.87;0.93;;;17.40;1.00;;;;;;5042872;28;20410;-69
2023/07/03 08:23:10;;;;;;;5.83;0.90;;;17.50;99.90;;;;;;5053205;28;20829;-69
2023/07/03 08:25:36;;;;;;;6.80;0.90;;;17.60;1.00;;;;;;5040965;28;20487;-69
2023/07/03 08:28:01;;;;;;;9.85;1.10;;;17.70;99.90;;;;;;5050309;28;20478;-69
2023/07/03 08:30:28;;;;;;;6.85;1.08;;;17.70;99.90;;;;;;5048182;28;20496;-69
2023/07/03 08:32:54;;;;;;;6.68;1.13;;;17.70;1.00;;;;;;5055687;28;20412;-69
2023/07/03 08:35:19;;;;;;;7.00;0.95;;;17.80;91.60;;;;;;5061587;28;20406;-69
2023/07/03 08:37:45;;;;;;;6.37;1.07;;;17.90;38.50;;;;;;5069456;28;20424;-69
2023/07/03 08:40:17;;;;;;;7.30;1.27;;;18.00;99.90;;;;;;5069495;28;20466;-69
2023/07/03 08:42:49;;;;;;;8.73;1.10;;;18.00;99.90;;;;;;5049912;28;20423;-69
2023/07/03 08:45:17;;;;;;;5.93;0.80;;;18.10;99.90;;;;;;5048426;28;20923;-69
2023/07/03 08:47:45;;;;;;;7.20;0.85;;;18.20;1.00;;;;;;5060510;28;20408;-69
2023/07/03 08:50:16;;;;;;;5.50;1.00;;;18.20;99.90;;;;;;5068956;28;20453;-69
2023/07/03 08:52:47;;;;;;;6.07;0.93;;;18.20;99.90;;;;;;5042404;28;20762;-69
2023/07/03 08:55:17;;;;;;;4.90;0.77;;;18.10;1.00;;;;;;5051259;28;20399;-69
2023/07/03 08:57:42;;;;;;;3.53;0.55;;;18.10;1.00;;;;;;5045007;28;20447;-69
2023/07/03 09:00:11;;;;;;;3.63;0.50;;;18.10;1.00;;;;;;5038469;28;20412;-69
2023/07/03 09:03:00;;;;;;;5.50;0.80;;;18.10;99.90;;;;;;5067109;28;20436;-69
2023/07/03 09:05:44;;;;;;;4.50;0.75;;;18.30;99.90;;;;;;5068253;28;20436;-69
2023/07/03 09:08:21;;;;;;;4.32;0.95;;;18.50;1.00;;;;;;5049932;28;20419;-69
2023/07/03 09:10:49;;;;;;;5.30;0.65;;;18.70;99.90;;;;;;5062117;28;20420;-69
2023/07/03 09:13:40;;;;;;;3.90;0.50;;;18.90;99.90;;;;;;5045022;28;20460;-69
2023/07/03 09:16:15;;;;;;;5.82;0.70;;;18.80;99.90;;;;;;5045190;28;20412;-69
2023/07/03 09:18:50;;;;;;;5.28;0.70;;;18.60;99.90;;;;;;5046971;28;20468;-69
2023/07/03 09:21:16;;;;;;;3.97;0.50;;;18.70;99.90;;;;;;5065106;28;20827;-69
2023/07/03 09:24:07;;;;;;;2.97;0.68;;;18.90;99.90;;;;;;5046315;28;20409;-69
2023/07/03 09:26:56;;;;;;;5.93;0.88;;;19.00;99.90;;;;;;5050143;28;20412;-69
2023/07/03 09:29:23;;;;;;;4.28;0.50;;;19.10;99.90;;;;;;5025111;28;20416;-69
2023/07/03 09:31:49;;;;;;;4.35;0.80;;;19.00;99.90;;;;;;5068046;28;20395;-69
2023/07/03 09:34:15;;;;;;;4.63;0.70;;;18.80;99.90;;;;;;5065827;28;20441;-69
2023/07/03 09:36:43;;;;;;;2.70;0.60;;;18.70;99.90;;;;;;5046671;28;20416;-69
2023/07/03 09:39:18;;;;;;;5.45;0.65;;;18.60;99.90;;;;;;5061069;28;20405;-69
2023/07/03 09:41:44;;;;;;;4.30;0.50;;;18.60;99.90;;;;;;5053508;28;20407;-69
2023/07/03 09:44:16;;;;;;;3.75;0.60;;;18.60;99.90;;;;;;5068059;28;20408;-69
2023/07/03 09:46:43;;;;;;;4.22;0.90;;;18.70;99.90;;;;;;5040204;28;20428;-69
2023/07/03 09:49:28;;;;;;;3.80;0.68;;;19.10;99.90;;;;;;5067517;28;20435;-70
2023/07/03 09:51:56;;;;;;;4.07;0.57;;;19.70;99.90;;;;;;5061009;28;20410;-69
2023/07/03 09:54:26;;;;;;;3.83;0.57;;;20.00;99.90;;;;;;5067515;28;20408;-69
2023/07/03 09:56:52;;;;;;;5.00;0.80;;;20.20;99.90;;;;;;5067979;28;20864;-70
2023/07/03 09:59:19;;;;;;;4.88;1.00;;;20.30;99.90;;;;;;5044761;28;20497;-69
2023/07/03 10:01:46;;;;;;;3.50;0.63;;;20.40;99.90;;;;;;5066351;28;20423;-69
2023/07/03 10:04:14;;;;;;;6.25;0.77;;;20.50;99.90;;;;;;5046367;28;20409;-69
2023/07/03 10:07:11;;;;;;;4.60;0.70;;;20.40;99.90;;;;;;5028748;28;20748;-69
2023/07/03 10:09:41;;;;;;;3.75;0.50;;;20.20;99.90;;;;;;5042256;28;20439;-69
2023/07/03 10:12:30;;;;;;;4.27;0.70;;;20.10;99.90;;;;;;5046588;28;20963;-69
2023/07/03 10:15:06;;;;;;;4.35;0.70;;;20.00;99.90;;;;;;5047445;28;20836;-69
2023/07/03 10:17:36;;;;;;;4.90;0.50;;;19.90;99.90;;;;;;5037035;28;20827;-69
2023/07/03 10:20:09;;;;;;;6.90;0.73;;;19.70;99.90;;;;;;5048348;28;20408;-69
2023/07/03 10:22:37;;;;;;;3.28;0.52;;;19.60;99.90;;;;;;5047416;28;20417;-70
2023/07/03 10:25:07;;;;;;;6.00;0.80;;;19.50;99.90;;;;;;5046189;28;20911;-69
2023/07/03 10:27:35;;;;;;;3.90;0.55;;;19.30;99.90;;;;;;5044767;28;20479;-69
2023/07/03 10:30:08;;;;;;;4.68;0.75;;;19.30;99.90;;;;;;5027444;28;20416;-69
2023/07/03 10:32:36;;;;;;;4.40;0.60;;;19.10;99.90;;;;;;5053346;28;20407;-69
2023/07/03 10:35:13;;;;;;;4.20;0.52;;;19.10;99.90;;;;;;5067874;28;20483;-69
2023/07/03 10:37:51;;;;;;;2.83;0.50;;;19.00;99.90;;;;;;5065016;28;20427;-69
2023/07/03 10:40:30;;;;;;;2.40;0.40;;;19.00;99.90;;;;;;5041090;28;20474;-68
2023/07/03 10:43:01;;;;;;;3.37;0.50;;;18.90;99.90;;;;;;5064329;28;20420;-70
2023/07/03 10:45:31;;;;;;;3.35;0.47;;;18.80;99.90;;;;;;5055326;28;20428;-68
2023/07/03 10:48:22;;;;;;;4.47;0.70;;;18.80;99.90;;;;;;5032162;28;20408;-69
2023/07/03 10:51:17;;;;;;;4.20;0.55;;;18.70;99.90;;;;;;5066737;28;20411;-69
2023/07/03 10:53:46;;;;;;;5.80;0.60;;;18.70;99.90;;;;;;5066995;28;20457;-68
2023/07/03 10:56:34;;;;;;;3.10;0.40;;;18.60;99.90;;;;;;5045979;28;20552;-69
2023/07/03 10:59:12;;;;;;;3.17;0.70;;;18.60;99.90;;;;;;5063461;28;20848;-69
2023/07/03 11:01:56;;;;;;;3.50;0.57;;;18.70;99.90;;;;;;5046696;28;21064;-69
2023/07/03 11:04:38;;;;;;;4.32;0.70;;;19.00;99.90;;;;;;5032618;28;20416;-70
2023/07/03 11:07:16;;;;;;;4.88;0.70;;;19.10;99.90;;;;;;5048651;28;20910;-69
2023/07/03 11:09:46;;;;;;;3.53;0.50;;;19.10;99.90;;;;;;5042841;28;20427;-69
2023/07/03 11:12:25;;;;;;;4.18;0.52;;;19.10;99.90;;;;;;5032353;28;20416;-69
2023/07/03 11:15:48;;;;;;;5.45;0.60;;;19.10;99.90;;;;;;5045557;28;20413;-69
2023/07/03 11:18:16;;;;;;;4.28;0.60;;;19.10;99.90;;;;;;4950000;28;20515;-69
2023/07/03 11:20:58;;;;;;;2.83;0.50;;;19.00;99.90;;;;;;4933587;28;20450;-69
2023/07/03 11:23:29;;;;;;;3.63;0.55;;;18.80;99.90;;;;;;4999139;28;20416;-69
2023/07/03 11:26:04;;;;;;;4.65;0.80;;;18.70;99.90;;;;;;5047713;28;20472;-69
2023/07/03 11:28:36;;;;;;;4.13;0.63;;;18.80;99.90;;;;;;5049205;28;20417;-69
2023/07/03 11:31:04;;;;;;;4.18;0.60;;;19.20;99.90;;;;;;5052026;28;20454;-70
2023/07/03 11:33:33;;;;;;;3.40;0.68;;;19.80;99.90;;;;;;5047565;28;20401;-70
2023/07/03 11:36:00;;;;;;;5.55;0.70;;;20.40;99.90;;;;;;5046165;28;20488;-70
2023/07/03 11:38:26;;;;;;;4.40;0.60;;;20.80;99.90;;;;;;5043653;28;20435;-70
2023/07/03 11:40:55;;;;;;;5.55;0.80;;;21.10;99.90;;;;;;5050154;28;20415;-70
2023/07/03 11:43:33;;;;;;;5.78;1.20;;;21.10;99.90;;;;;;5049292;28;20421;-70
2023/07/03 11:46:12;;;;;;;3.65;0.60;;;21.40;99.90;;;;;;5044214;28;20440;-70
2023/07/03 11:48:37;;;;;;;4.75;0.88;;;21.90;99.90;;;;;;5032572;28;20447;-70
2023/07/03 11:51:12;;;;;;;4.60;0.60;;;22.40;99.90;;;;;;5048875;28;20500;-70
2023/07/03 11:53:37;;;;;;;7.15;1.02;;;22.90;99.90;;;;;;5067696;28;20403;-70
2023/07/03 11:56:06;;;;;;;3.53;0.50;;;22.80;99.90;;;;;;5049041;28;20406;-70
2023/07/03 11:58:33;;;;;;;3.70;0.45;;;22.30;99.90;;;;;;5050768;28;20504;-70
2023/07/03 12:01:22;;;;;;;4.07;0.55;;;21.70;99.90;;;;;;5070106;28;20400;-70
2023/07/03 12:03:53;;;;;;;3.40;0.63;;;21.20;99.90;;;;;;5027733;28;20469;-70
2023/07/03 12:06:43;;;;;;;4.95;0.65;;;20.80;99.90;;;;;;5052068;28;20427;-69
2023/07/03 12:09:21;;;;;;;4.80;0.90;;;20.30;99.40;;;;;;5040931;28;20911;-70
2023/07/03 12:12:06;;;;;;;5.75;1.02;;;20.00;99.80;;;;;;5051123;28;20532;-69
2023/07/03 12:14:42;;;;;;;7.13;0.80;;;19.70;99.70;;;;;;5050272;28;20446;-69
2023/07/03 12:17:27;;;;;;;4.90;0.80;;;19.50;99.30;;;;;;5048987;28;20512;-69
2023/07/03 12:19:54;;;;;;;4.43;0.65;;;19.40;99.40;;;;;;5048046;28;20409;-70
2023/07/03 12:22:25;;;;;;;5.50;0.80;;;19.30;99.90;;;;;;5045613;28;20411;-69
2023/07/03 12:25:03;;;;;;;5.18;0.82;;;19.40;99.90;;;;;;5068415;28;20407;-70
2023/07/03 12:27:29;;;;;;;5.13;0.85;;;19.70;99.90;;;;;;5068559;28;20482;-70
2023/07/03 12:29:55;;;;;;;4.60;0.60;;;19.90;99.90;;;;;;5070025;28;20610;-69
2023/07/03 12:32:35;;;;;;;4.55;0.60;;;19.90;99.70;;;;;;5068317;28;20957;-69
2023/07/03 12:35:15;;;;;;;5.70;0.60;;;19.80;98.50;;;;;;5058021;28;20811;-69
2023/07/03 12:37:43;;;;;;;5.13;0.50;;;19.80;98.10;;;;;;5058781;28;20796;-69
2023/07/03 12:40:11;;;;;;;3.92;0.60;;;19.80;97.80;;;;;;5063034;28;20455;-69
2023/07/03 12:42:37;;;;;;;4.07;0.63;;;19.80;97.50;;;;;;5045436;28;20401;-70
2023/07/03 12:45:13;;;;;;;3.73;0.60;;;19.80;97.40;;;;;;5043458;28;20492;-70
2023/07/03 12:47:38;;;;;;;3.35;0.70;;;19.80;96.50;;;;;;5064160;28;20415;-69
2023/07/03 12:50:05;;;;;;;4.03;0.70;;;19.70;95.40;;;;;;5044628;28;20415;-70
2023/07/03 12:52:32;;;;;;;3.40;0.70;;;19.60;95.40;;;;;;5038264;28;21011;-70
2023/07/03 12:55:00;;;;;;;3.53;0.40;;;19.50;94.50;;;;;;5044327;28;20420;-70